Time;durP1;ratioP1;P1;durP2;ratioP2;P2;SDS_P1;SDS_P2;PMS_P1;PMS_P2;Temp;Humidity;BMP_temperature;BMP_pressure;BME280_temperature;BME280_humidity;BME280_pressure;Samples;Min_cycle;Max_cycle;Signal;HPM_P1;HPM_P2
2023/11/17 00:01:26;;;;;;;4.35;2.80;;;;;;;;;;5066260;28;20052;-57
2023/11/17 00:03:52;;;;;;;4.45;3.00;;;;;;;;;;5056871;28;20461;-57
2023/11/17 00:06:17;;;;;;;4.45;2.72;;;;;;;;;;5065876;28;20249;-58
2023/11/17 00:08:42;;;;;;;3.83;2.75;;;;;;;;;;5066396;28;20036;-57
2023/11/17 00:11:08;;;;;;;4.00;3.00;;;;;;;;;;5064482;28;20041;-57
2023/11/17 00:13:33;;;;;;;4.32;2.90;;;;;;;;;;5066112;28;20056;-58
2023/11/17 00:15:58;;;;;;;4.78;2.75;;;;;;;;;;5072644;28;20058;-57
2023/11/17 00:18:24;;;;;;;5.50;2.92;;;;;;;;;;5065605;28;20794;-58
2023/11/17 00:20:49;;;;;;;5.63;3.17;;;;;;;;;;5065215;28;20569;-57
2023/11/17 00:23:14;;;;;;;3.80;2.90;;;;;;;;;;5065748;28;20044;-58
2023/11/17 00:25:40;;;;;;;4.53;2.80;;;;;;;;;;5065471;28;20403;-56
2023/11/17 00:28:05;;;;;;;4.47;2.88;;;;;;;;;;5063971;28;20033;-57
2023/11/17 00:30:30;;;;;;;4.15;2.90;;;;;;;;;;5065168;28;20474;-57
2023/11/17 00:32:56;;;;;;;4.32;2.90;;;;;;;;;;5046848;28;20106;-56
2023/11/17 00:35:21;;;;;;;3.97;2.83;;;;;;;;;;5065460;28;20514;-55
2023/11/17 00:37:46;;;;;;;3.47;2.60;;;;;;;;;;5062807;28;20094;-55
2023/11/17 00:40:12;;;;;;;3.83;2.67;;;;;;;;;;5064993;28;20044;-55
2023/11/17 00:42:37;;;;;;;4.25;3.00;;;;;;;;;;5065630;28;20029;-57
2023/11/17 00:45:04;;;;;;;3.85;2.72;;;;;;;;;;5060202;28;20128;-56
2023/11/17 00:47:29;;;;;;;4.22;2.65;;;;;;;;;;5055680;28;20071;-56
2023/11/17 00:49:55;;;;;;;4.28;2.83;;;;;;;;;;5059769;28;20067;-56
2023/11/17 00:52:20;;;;;;;4.78;3.20;;;;;;;;;;5063163;28;20036;-57
2023/11/17 00:54:47;;;;;;;4.57;2.90;;;;;;;;;;5061339;28;20698;-56
2023/11/17 00:57:12;;;;;;;4.32;2.95;;;;;;;;;;5062263;28;20571;-56
2023/11/17 00:59:40;;;;;;;4.85;2.67;;;;;;;;;;5064805;28;20044;-56
2023/11/17 01:02:05;;;;;;;5.32;2.85;;;;;;;;;;5061525;28;20106;-57
2023/11/17 01:04:31;;;;;;;4.53;2.72;;;;;;;;;;5065224;28;20508;-58
2023/11/17 01:06:57;;;;;;;5.28;3.20;;;;;;;;;;5064154;28;20055;-58
2023/11/17 01:09:22;;;;;;;4.82;3.00;;;;;;;;;;5063498;28;20024;-57
2023/11/17 01:11:48;;;;;;;3.60;2.60;;;;;;;;;;5062744;28;20462;-57
2023/11/17 01:14:13;;;;;;;3.97;2.72;;;;;;;;;;5067202;28;20045;-57
2023/11/17 01:16:39;;;;;;;3.83;2.70;;;;;;;;;;5064635;28;20052;-57
2023/11/17 01:19:04;;;;;;;3.58;2.85;;;;;;;;;;5062455;28;20579;-57
2023/11/17 01:21:30;;;;;;;3.63;2.50;;;;;;;;;;5061900;28;20513;-58
2023/11/17 01:23:55;;;;;;;3.65;2.80;;;;;;;;;;5065821;28;20574;-57
2023/11/17 01:26:21;;;;;;;4.60;2.80;;;;;;;;;;5062763;28;20037;-57
2023/11/17 01:28:46;;;;;;;4.43;2.78;;;;;;;;;;5062521;28;20072;-57
2023/11/17 01:31:12;;;;;;;4.65;2.63;;;;;;;;;;5063197;28;20075;-57
2023/11/17 01:33:38;;;;;;;4.90;2.72;;;;;;;;;;5065780;28;20053;-56
2023/11/17 01:36:05;;;;;;;4.05;2.70;;;;;;;;;;5063974;28;20040;-55
2023/11/17 01:38:31;;;;;;;3.58;2.42;;;;;;;;;;5063832;28;20094;-56
2023/11/17 01:40:58;;;;;;;4.60;2.60;;;;;;;;;;5063944;28;20032;-57
2023/11/17 01:43:24;;;;;;;4.35;2.80;;;;;;;;;;5063963;28;20048;-57
2023/11/17 01:45:50;;;;;;;4.20;2.80;;;;;;;;;;5059103;28;20183;-57
2023/11/17 01:48:15;;;;;;;3.63;2.45;;;;;;;;;;5060361;28;20108;-57
2023/11/17 01:50:40;;;;;;;3.10;2.30;;;;;;;;;;5064265;28;20556;-57
2023/11/17 01:53:07;;;;;;;3.50;2.53;;;;;;;;;;5064424;28;20299;-57
2023/11/17 01:55:32;;;;;;;5.03;2.85;;;;;;;;;;5062775;28;20037;-57
2023/11/17 01:57:57;;;;;;;4.07;2.80;;;;;;;;;;5066171;28;20558;-57
2023/11/17 02:00:22;;;;;;;3.50;2.63;;;;;;;;;;5061514;28;20044;-57
2023/11/17 02:02:48;;;;;;;3.90;2.50;;;;;;;;;;5064101;28;20498;-57
2023/11/17 02:05:14;;;;;;;3.70;2.60;;;;;;;;;;5063400;28;20043;-57
2023/11/17 02:07:43;;;;;;;4.15;2.75;;;;;;;;;;5061534;28;20048;-57
2023/11/17 02:10:09;;;;;;;3.75;2.47;;;;;;;;;;5053662;28;20492;-58
2023/11/17 02:12:46;;;;;;;3.83;2.50;;;;;;;;;;5064054;28;20044;-57
2023/11/17 02:15:15;;;;;;;3.90;2.30;;;;;;;;;;5063940;28;20155;-57
2023/11/17 02:17:45;;;;;;;4.30;2.72;;;;;;;;;;5061735;28;20040;-57
2023/11/17 02:20:19;;;;;;;;;;;;;;;;;;5064820;28;20089;-57
2023/11/17 02:22:47;;;;;;;4.40;2.65;;;;;;;;;;5063524;28;20409;-57
2023/11/17 02:25:28;;;;;;;4.40;2.83;;;;;;;;;;5046695;28;20059;-57
2023/11/17 02:27:53;;;;;;;3.90;2.60;;;;;;;;;;5061682;28;20052;-57
2023/11/17 02:30:19;;;;;;;4.27;2.70;;;;;;;;;;5066594;28;20032;-57
2023/11/17 02:32:49;;;;;;;3.03;2.20;;;;;;;;;;5065047;28;20275;-57
2023/11/17 02:35:15;;;;;;;4.10;2.50;;;;;;;;;;5062147;28;20037;-57
2023/11/17 02:37:41;;;;;;;3.88;2.55;;;;;;;;;;5063791;28;20062;-56
2023/11/17 02:40:18;;;;;;;5.00;2.50;;;;;;;;;;5065176;28;20021;-57
2023/11/17 02:42:44;;;;;;;3.83;2.60;;;;;;;;;;5055480;28;20044;-57
2023/11/17 02:45:18;;;;;;;3.95;2.67;;;;;;;;;;5061889;28;20399;-57
2023/11/17 02:47:46;;;;;;;2.97;2.40;;;;;;;;;;5062960;28;20686;-57
2023/11/17 02:50:18;;;;;;;4.03;2.67;;;;;;;;;;5063184;28;20035;-58
2023/11/17 02:52:48;;;;;;;4.88;2.45;;;;;;;;;;5062745;28;20033;-57
2023/11/17 02:55:14;;;;;;;4.18;2.70;;;;;;;;;;5061401;28;20040;-58
2023/11/17 02:57:39;;;;;;;3.83;2.35;;;;;;;;;;5063260;28;20119;-56
2023/11/17 03:00:06;;;;;;;4.57;2.97;;;;;;;;;;5065679;28;20494;-56
2023/11/17 03:02:32;;;;;;;3.40;2.58;;;;;;;;;;5061743;28;20025;-56
2023/11/17 03:04:57;;;;;;;4.00;2.60;;;;;;;;;;5061705;28;20445;-56
2023/11/17 03:07:22;;;;;;;3.67;2.60;;;;;;;;;;5061555;28;20119;-56
2023/11/17 03:09:51;;;;;;;3.97;2.72;;;;;;;;;;5062151;28;20032;-56
2023/11/17 03:12:16;;;;;;;4.13;2.72;;;;;;;;;;5061949;28;20418;-56
2023/11/17 03:14:42;;;;;;;3.70;2.40;;;;;;;;;;5061649;28;20045;-57
2023/11/17 03:17:09;;;;;;;4.75;2.88;;;;;;;;;;5062731;28;20541;-56
2023/11/17 03:19:35;;;;;;;4.95;2.72;;;;;;;;;;5063633;28;20907;-57
2023/11/17 03:22:00;;;;;;;4.85;2.78;;;;;;;;;;5063054;28;20060;-57
2023/11/17 03:24:26;;;;;;;4.10;2.70;;;;;;;;;;5061715;28;20036;-56
2023/11/17 03:26:55;;;;;;;4.15;2.83;;;;;;;;;;5062863;28;20154;-56
2023/11/17 03:29:20;;;;;;;3.63;2.80;;;;;;;;;;5062277;28;20032;-57
2023/11/17 03:31:49;;;;;;;3.65;2.55;;;;;;;;;;5063366;28;20468;-56
2023/11/17 03:34:24;;;;;;;5.20;3.08;;;;;;;;;;5062757;28;20049;-56
2023/11/17 03:36:56;;;;;;;3.88;2.70;;;;;;;;;;5062498;28;20048;-56
2023/11/17 03:39:24;;;;;;;4.15;2.80;;;;;;;;;;5062298;28;20119;-56
2023/11/17 03:41:50;;;;;;;3.92;2.85;;;;;;;;;;5064592;28;20111;-57
2023/11/17 03:44:16;;;;;;;3.90;2.80;;;;;;;;;;5059648;28;20241;-56
2023/11/17 03:46:45;;;;;;;4.55;2.80;;;;;;;;;;5061060;28;20119;-57
2023/11/17 03:49:11;;;;;;;4.40;2.92;;;;;;;;;;5062442;28;20032;-56
2023/11/17 03:51:37;;;;;;;3.75;2.67;;;;;;;;;;5060344;28;20041;-56
2023/11/17 03:54:05;;;;;;;4.85;3.40;;;;;;;;;;5061229;28;20570;-56
2023/11/17 03:56:30;;;;;;;3.58;2.80;;;;;;;;;;5062859;28;20037;-56
2023/11/17 03:58:56;;;;;;;4.25;2.80;;;;;;;;;;5062360;28;20430;-56
2023/11/17 04:01:21;;;;;;;4.35;3.03;;;;;;;;;;5060485;28;20029;-57
2023/11/17 04:03:46;;;;;;;3.72;2.65;;;;;;;;;;5061767;28;20545;-57
2023/11/17 04:06:12;;;;;;;4.28;2.90;;;;;;;;;;5073631;28;20033;-57
2023/11/17 04:08:37;;;;;;;4.55;3.17;;;;;;;;;;5070763;28;20064;-57
2023/11/17 04:11:03;;;;;;;4.30;3.00;;;;;;;;;;5064016;28;20127;-58
2023/11/17 04:13:31;;;;;;;4.10;2.90;;;;;;;;;;5065862;28;20040;-57
2023/11/17 04:15:56;;;;;;;3.65;2.80;;;;;;;;;;5065512;28;20068;-56
2023/11/17 04:18:22;;;;;;;4.03;3.13;;;;;;;;;;5065184;28;20316;-56
2023/11/17 04:20:48;;;;;;;4.05;2.78;;;;;;;;;;5065506;28;20502;-57
2023/11/17 04:23:13;;;;;;;3.83;2.95;;;;;;;;;;5066332;28;20032;-57
2023/11/17 04:25:38;;;;;;;4.25;3.10;;;;;;;;;;5065764;28;20066;-57
2023/11/17 04:28:04;;;;;;;3.95;2.95;;;;;;;;;;5065114;28;20036;-57
2023/11/17 04:30:29;;;;;;;3.83;2.75;;;;;;;;;;5065903;28;20132;-57
2023/11/17 04:32:55;;;;;;;3.58;2.85;;;;;;;;;;5066092;28;20063;-56
2023/11/17 04:35:20;;;;;;;4.10;3.03;;;;;;;;;;5065655;28;20045;-57
2023/11/17 04:37:46;;;;;;;4.00;3.03;;;;;;;;;;5064398;28;20119;-57
2023/11/17 04:40:12;;;;;;;4.07;2.83;;;;;;;;;;5071401;28;20028;-56
2023/11/17 04:42:40;;;;;;;4.00;3.08;;;;;;;;;;5065390;28;20040;-56
2023/11/17 04:45:09;;;;;;;4.75;3.20;;;;;;;;;;5063833;28;20045;-56
2023/11/17 04:47:34;;;;;;;3.97;3.17;;;;;;;;;;5065480;28;20062;-56
2023/11/17 04:49:59;;;;;;;4.25;2.75;;;;;;;;;;5067107;28;20123;-58
2023/11/17 04:52:25;;;;;;;3.50;2.72;;;;;;;;;;5065128;28;20451;-56
2023/11/17 04:54:50;;;;;;;4.60;3.15;;;;;;;;;;5065132;28;20131;-56
2023/11/17 04:57:17;;;;;;;4.13;2.95;;;;;;;;;;5063485;28;20414;-56
2023/11/17 04:59:42;;;;;;;3.65;2.80;;;;;;;;;;5062501;28;20132;-57
2023/11/17 05:02:07;;;;;;;3.80;3.10;;;;;;;;;;5051234;28;20036;-57
2023/11/17 05:04:33;;;;;;;4.60;3.65;;;;;;;;;;5064821;28;20037;-56
2023/11/17 05:06:58;;;;;;;4.13;3.10;;;;;;;;;;5064662;28;20021;-57
2023/11/17 05:09:23;;;;;;;4.18;3.00;;;;;;;;;;5064895;28;20502;-57
2023/11/17 05:11:49;;;;;;;4.60;2.85;;;;;;;;;;5063998;28;20039;-57
2023/11/17 05:14:14;;;;;;;4.27;3.00;;;;;;;;;;5063523;28;20078;-57
2023/11/17 05:16:40;;;;;;;4.53;2.88;;;;;;;;;;5052903;28;20281;-58
2023/11/17 05:19:05;;;;;;;4.43;3.28;;;;;;;;;;5043097;28;20545;-57
2023/11/17 05:21:31;;;;;;;4.22;2.83;;;;;;;;;;5061012;28;20037;-57
2023/11/17 05:23:56;;;;;;;4.72;3.40;;;;;;;;;;5063396;28;20399;-57
2023/11/17 05:26:21;;;;;;;5.68;3.28;;;;;;;;;;5064515;28;20016;-57
2023/11/17 05:28:47;;;;;;;5.25;3.47;;;;;;;;;;5073536;28;20020;-56
2023/11/17 05:31:12;;;;;;;3.78;3.20;;;;;;;;;;5064571;28;20403;-57
2023/11/17 05:33:37;;;;;;;4.28;2.83;;;;;;;;;;5065635;28;20116;-57
2023/11/17 05:36:03;;;;;;;5.35;3.05;;;;;;;;;;5059406;28;20506;-57
2023/11/17 05:38:28;;;;;;;5.50;3.20;;;;;;;;;;5048283;28;20050;-57
2023/11/17 05:40:53;;;;;;;4.60;3.10;;;;;;;;;;5052518;28;20035;-58
2023/11/17 05:43:19;;;;;;;3.93;3.17;;;;;;;;;;5048706;28;20110;-57
2023/11/17 05:45:49;;;;;;;6.00;3.35;;;;;;;;;;5046574;28;20275;-58
2023/11/17 05:48:15;;;;;;;4.80;3.20;;;;;;;;;;5051694;28;20137;-58
2023/11/17 05:50:41;;;;;;;4.55;3.10;;;;;;;;;;5051192;28;20025;-58
2023/11/17 05:53:06;;;;;;;4.75;3.10;;;;;;;;;;5047907;28;20067;-58
2023/11/17 05:55:32;;;;;;;5.18;3.33;;;;;;;;;;5048075;28;20063;-57
2023/11/17 05:57:57;;;;;;;4.70;3.13;;;;;;;;;;5047243;28;20048;-58
2023/11/17 06:00:27;;;;;;;4.82;3.20;;;;;;;;;;5046309;28;20032;-58
2023/11/17 06:02:52;;;;;;;4.53;3.20;;;;;;;;;;5048594;28;20269;-57
2023/11/17 06:05:18;;;;;;;5.10;3.72;;;;;;;;;;5048048;28;20016;-57
2023/11/17 06:07:43;;;;;;;4.32;3.10;;;;;;;;;;5049067;28;20036;-57
2023/11/17 06:10:08;;;;;;;5.90;3.58;;;;;;;;;;5048251;28;20508;-57
2023/11/17 06:12:34;;;;;;;4.70;3.17;;;;;;;;;;5047438;28;20083;-59
2023/11/17 06:15:00;;;;;;;4.13;3.13;;;;;;;;;;5049097;28;20768;-57
2023/11/17 06:17:26;;;;;;;4.07;2.97;;;;;;;;;;5049856;28;20041;-58
2023/11/17 06:19:51;;;;;;;5.43;3.22;;;;;;;;;;5047875;28;20094;-57
2023/11/17 06:22:16;;;;;;;5.57;3.10;;;;;;;;;;5048448;28;20028;-57
2023/11/17 06:24:42;;;;;;;5.35;3.55;;;;;;;;;;5049499;28;20117;-57
2023/11/17 06:27:10;;;;;;;4.25;3.38;;;;;;;;;;5047195;28;20051;-59
2023/11/17 06:29:36;;;;;;;4.68;3.15;;;;;;;;;;5050143;28;20029;-57
2023/11/17 06:32:02;;;;;;;4.75;3.30;;;;;;;;;;5045354;28;20046;-57
2023/11/17 06:34:27;;;;;;;5.25;3.67;;;;;;;;;;5046452;28;20044;-57
2023/11/17 06:36:53;;;;;;;3.92;2.95;;;;;;;;;;5035504;28;20047;-57
2023/11/17 06:39:18;;;;;;;5.30;3.42;;;;;;;;;;5048144;28;20025;-57
2023/11/17 06:41:47;;;;;;;3.78;2.85;;;;;;;;;;5045578;28;20505;-58
2023/11/17 06:44:12;;;;;;;6.22;3.35;;;;;;;;;;5047076;28;20044;-56
2023/11/17 06:46:45;;;;;;;4.65;3.10;;;;;;;;;;5061521;28;20048;-57
2023/11/17 06:49:14;;;;;;;5.18;3.53;;;;;;;;;;5047170;28;20067;-58
2023/11/17 06:51:40;;;;;;;4.80;2.85;;;;;;;;;;5043093;28;20160;-58
2023/11/17 06:54:10;;;;;;;5.07;3.20;;;;;;;;;;5046735;28;20124;-57
2023/11/17 06:56:35;;;;;;;4.32;3.10;;;;;;;;;;5046315;28;20115;-56
2023/11/17 06:59:00;;;;;;;5.10;3.58;;;;;;;;;;5047904;28;22246;-59
2023/11/17 07:01:26;;;;;;;4.68;3.25;;;;;;;;;;5047497;28;20099;-56
2023/11/17 07:03:52;;;;;;;4.88;3.40;;;;;;;;;;5048308;28;20040;-56
2023/11/17 07:06:17;;;;;;;4.63;3.00;;;;;;;;;;5047748;28;20248;-57
2023/11/17 07:08:43;;;;;;;4.97;3.60;;;;;;;;;;5049769;28;20579;-57
2023/11/17 07:11:10;;;;;;;4.22;3.22;;;;;;;;;;5037492;28;20029;-57
2023/11/17 07:13:36;;;;;;;4.45;3.22;;;;;;;;;;5048166;28;20045;-57
2023/11/17 07:16:06;;;;;;;11.38;7.40;;;;;;;;;;5052543;28;20383;-63
2023/11/17 07:18:32;;;;;;;6.95;4.90;;;;;;;;;;5050791;28;20029;-56
2023/11/17 07:20:57;;;;;;;7.25;4.55;;;;;;;;;;5034564;28;20033;-59
2023/11/17 07:23:23;;;;;;;5.18;3.70;;;;;;;;;;5052823;28;20048;-57
2023/11/17 07:25:48;;;;;;;5.78;3.40;;;;;;;;;;5036096;28;20049;-57
2023/11/17 07:28:15;;;;;;;6.15;3.47;;;;;;;;;;5037034;28;20055;-59
2023/11/17 07:30:41;;;;;;;5.13;3.55;;;;;;;;;;5079455;28;21964;-56
2023/11/17 07:33:09;;;;;;;4.65;3.47;;;;;;;;;;5034280;28;20049;-58
2023/11/17 07:35:35;;;;;;;6.30;3.90;;;;;;;;;;5028575;28;20033;-58
2023/11/17 07:38:02;;;;;;;5.07;3.55;;;;;;;;;;5046387;28;20120;-59
2023/11/17 07:40:27;;;;;;;4.95;3.38;;;;;;;;;;5045923;28;20132;-57
2023/11/17 07:42:52;;;;;;;5.57;3.60;;;;;;;;;;5038158;28;20067;-57
2023/11/17 07:45:18;;;;;;;5.83;3.63;;;;;;;;;;5050704;28;20056;-56
2023/11/17 07:47:43;;;;;;;4.45;3.33;;;;;;;;;;5037690;28;20824;-58
2023/11/17 07:50:13;;;;;;;4.50;3.50;;;;;;;;;;5049533;28;20040;-57
2023/11/17 07:52:38;;;;;;;;;;;;;;;;;;5054045;28;20281;-57
2023/11/17 07:55:04;;;;;;;7.57;3.90;;;;;;;;;;5081576;28;20530;-57
2023/11/17 07:57:30;;;;;;;6.57;3.50;;;;;;;;;;5037140;28;20037;-57
2023/11/17 07:59:55;;;;;;;5.40;3.30;;;;;;;;;;5036220;28;20041;-57
2023/11/17 08:02:20;;;;;;;4.45;3.28;;;;;;;;;;5081721;28;20127;-57
2023/11/17 08:04:46;;;;;;;4.88;3.42;;;;;;;;;;5051637;28;20060;-57
2023/11/17 08:07:11;;;;;;;6.40;3.63;;;;;;;;;;5050573;28;20439;-57
2023/11/17 08:09:37;;;;;;;5.43;3.83;;;;;;;;;;5050853;28;20393;-57
2023/11/17 08:12:02;;;;;;;5.15;3.47;;;;;;;;;;5049166;28;20214;-55
2023/11/17 08:14:28;;;;;;;4.72;3.50;;;;;;;;;;5052452;28;20059;-57
2023/11/17 08:16:53;;;;;;;5.00;3.20;;;;;;;;;;5051131;28;20041;-57
2023/11/17 08:19:19;;;;;;;4.65;3.40;;;;;;;;;;5049445;28;20036;-56
2023/11/17 08:21:44;;;;;;;4.93;3.50;;;;;;;;;;5047184;28;20847;-57
2023/11/17 08:24:10;;;;;;;5.65;3.75;;;;;;;;;;5053033;28;20040;-56
2023/11/17 08:26:38;;;;;;;5.32;3.63;;;;;;;;;;5048913;28;20045;-57
2023/11/17 08:29:04;;;;;;;6.30;3.72;;;;;;;;;;5052296;28;20180;-57
2023/11/17 08:31:29;;;;;;;6.80;3.90;;;;;;;;;;5049422;28;20033;-55
2023/11/17 08:33:54;;;;;;;4.22;3.25;;;;;;;;;;5049210;28;20045;-56
2023/11/17 08:36:23;;;;;;;4.72;2.95;;;;;;;;;;5048463;28;20439;-56
2023/11/17 08:38:50;;;;;;;4.95;3.65;;;;;;;;;;5045256;28;20065;-58
2023/11/17 08:41:16;;;;;;;4.97;3.60;;;;;;;;;;5048850;28;20037;-57
2023/11/17 08:43:42;;;;;;;5.90;3.40;;;;;;;;;;5049275;28;20040;-58
2023/11/17 08:46:07;;;;;;;5.18;3.53;;;;;;;;;;5053314;28;20524;-56
2023/11/17 08:48:33;;;;;;;6.32;4.05;;;;;;;;;;5045814;28;20037;-57
2023/11/17 08:50:59;;;;;;;5.22;3.20;;;;;;;;;;5048736;28;20083;-56
2023/11/17 08:53:24;;;;;;;5.50;3.80;;;;;;;;;;5047931;28;20052;-57
2023/11/17 08:55:50;;;;;;;5.50;3.50;;;;;;;;;;5046676;28;20136;-56
2023/11/17 08:58:16;;;;;;;4.80;3.17;;;;;;;;;;5046493;28;20033;-55
2023/11/17 09:00:41;;;;;;;5.35;3.67;;;;;;;;;;5046627;28;20043;-55
2023/11/17 09:03:07;;;;;;;6.10;3.50;;;;;;;;;;5047402;28;20037;-56
2023/11/17 09:05:32;;;;;;;4.57;3.33;;;;;;;;;;5051163;28;20033;-56
2023/11/17 09:07:58;;;;;;;4.57;3.10;;;;;;;;;;5053737;28;20039;-56
2023/11/17 09:10:26;;;;;;;4.35;3.45;;;;;;;;;;5049113;28;20864;-56
2023/11/17 09:12:53;;;;;;;5.07;3.80;;;;;;;;;;5051226;28;20098;-56
2023/11/17 09:15:19;;;;;;;5.93;3.55;;;;;;;;;;5051387;28;20576;-56
2023/11/17 09:17:47;;;;;;;5.63;3.40;;;;;;;;;;5049791;28;20045;-56
2023/11/17 09:20:13;;;;;;;4.95;3.70;;;;;;;;;;5055921;28;20040;-56
2023/11/17 09:22:41;;;;;;;5.43;3.65;;;;;;;;;;5048790;28;20028;-56
2023/11/17 09:25:15;;;;;;;5.20;3.60;;;;;;;;;;5055082;28;20878;-56
2023/11/17 09:27:45;;;;;;;5.47;3.40;;;;;;;;;;5051795;28;20041;-56
2023/11/17 09:30:12;;;;;;;5.38;3.42;;;;;;;;;;5051013;28;20059;-57
2023/11/17 09:32:57;;;;;;;5.28;3.70;;;;;;;;;;5046130;28;20227;-56
2023/11/17 09:35:25;;;;;;;4.90;3.58;;;;;;;;;;5048948;28;20056;-57
2023/11/17 09:37:58;;;;;;;4.15;3.05;;;;;;;;;;5049530;28;20039;-57
2023/11/17 09:40:24;;;;;;;5.88;3.83;;;;;;;;;;5050933;28;20017;-56
2023/11/17 09:42:57;;;;;;;5.28;3.65;;;;;;;;;;5053619;28;20098;-56
2023/11/17 09:45:26;;;;;;;4.70;3.50;;;;;;;;;;5053632;28;20128;-56
2023/11/17 09:48:01;;;;;;;4.90;3.30;;;;;;;;;;5056925;28;20123;-57
2023/11/17 09:50:29;;;;;;;4.78;3.40;;;;;;;;;;5057297;28;20043;-56
2023/11/17 09:52:55;;;;;;;4.50;3.45;;;;;;;;;;5054616;28;20064;-57
2023/11/17 09:55:21;;;;;;;5.50;3.17;;;;;;;;;;5050409;28;20076;-57
2023/11/17 09:57:46;;;;;;;5.13;3.15;;;;;;;;;;5048130;28;20112;-57
2023/11/17 10:00:17;;;;;;;6.22;3.85;;;;;;;;;;5049301;28;20048;-57
2023/11/17 10:02:50;;;;;;;5.93;4.50;;;;;;;;;;5050221;28;20060;-57
2023/11/17 10:05:17;;;;;;;8.77;6.43;;;;;;;;;;5050577;28;20063;-57
2023/11/17 10:07:44;;;;;;;8.10;4.47;;;;;;;;;;5048767;28;20063;-56
2023/11/17 10:10:14;;;;;;;7.20;4.32;;;;;;;;;;5049811;28;20127;-57
2023/11/17 10:12:40;;;;;;;6.53;4.47;;;;;;;;;;5054468;28;20098;-56
2023/11/17 10:15:08;;;;;;;5.47;3.60;;;;;;;;;;5051365;28;20040;-57
2023/11/17 10:17:33;;;;;;;7.72;4.32;;;;;;;;;;5050413;28;20029;-56
2023/11/17 10:19:59;;;;;;;5.15;3.80;;;;;;;;;;5047302;28;20209;-56
2023/11/17 10:22:28;;;;;;;6.25;4.20;;;;;;;;;;5039649;28;20054;-56
2023/11/17 10:24:53;;;;;;;7.53;4.13;;;;;;;;;;5050430;28;20033;-56
2023/11/17 10:27:20;;;;;;;5.53;4.25;;;;;;;;;;5047931;28;20485;-56
2023/11/17 10:29:48;;;;;;;5.78;3.95;;;;;;;;;;5049404;28;20079;-56
2023/11/17 10:32:13;;;;;;;6.90;4.00;;;;;;;;;;5047070;28;20033;-57
2023/11/17 10:34:41;;;;;;;6.28;3.63;;;;;;;;;;5047742;28;20052;-56
2023/11/17 10:37:07;;;;;;;6.18;3.80;;;;;;;;;;5046649;28;20078;-56
2023/11/17 10:39:44;;;;;;;6.07;3.88;;;;;;;;;;5046269;28;20078;-56
2023/11/17 10:42:16;;;;;;;5.18;3.55;;;;;;;;;;5046605;28;20105;-55
2023/11/17 10:44:41;;;;;;;5.63;3.60;;;;;;;;;;5051562;28;20041;-55
2023/11/17 10:47:07;;;;;;;5.10;3.60;;;;;;;;;;5052302;28;20100;-55
2023/11/17 10:49:33;;;;;;;5.30;3.65;;;;;;;;;;5049090;28;20036;-56
2023/11/17 10:51:59;;;;;;;5.18;3.92;;;;;;;;;;5048517;28;20533;-57
2023/11/17 10:54:24;;;;;;;5.40;3.40;;;;;;;;;;5052905;28;20116;-56
2023/11/17 10:56:52;;;;;;;5.57;3.45;;;;;;;;;;5053493;28;21043;-56
2023/11/17 10:59:20;;;;;;;5.55;3.67;;;;;;;;;;5049204;28;20086;-56
2023/11/17 11:01:47;;;;;;;5.63;3.85;;;;;;;;;;5054608;28;20037;-57
2023/11/17 11:04:15;;;;;;;5.15;3.55;;;;;;;;;;5032508;28;20431;-55
2023/11/17 11:06:43;;;;;;;5.47;3.33;;;;;;;;;;5052903;28;20041;-56
2023/11/17 11:09:09;;;;;;;5.57;3.60;;;;;;;;;;5046861;28;20462;-55
2023/11/17 11:11:34;;;;;;;4.82;3.28;;;;;;;;;;5050487;28;20121;-56
2023/11/17 11:14:00;;;;;;;4.95;3.63;;;;;;;;;;5049230;28;20128;-57
2023/11/17 11:16:30;;;;;;;4.97;3.22;;;;;;;;;;5049593;28;20044;-56
2023/11/17 11:18:58;;;;;;;;;;;;;;;;;;5048801;28;20040;-55
2023/11/17 11:21:27;;;;;;;5.03;3.30;;;;;;;;;;5048554;28;19974;-55
2023/11/17 11:23:59;;;;;;;4.77;3.50;;;;;;;;;;5044208;28;20085;-56
2023/11/17 11:26:24;;;;;;;5.47;3.70;;;;;;;;;;5030564;28;20040;-55
2023/11/17 11:28:49;;;;;;;4.50;3.38;;;;;;;;;;5045808;28;20091;-55
2023/11/17 11:31:19;;;;;;;4.60;3.10;;;;;;;;;;5046436;28;20554;-56
2023/11/17 11:33:44;;;;;;;;;;;;;;;;;;5048449;28;20087;-56
2023/11/17 11:36:10;;;;;;;4.97;3.20;;;;;;;;;;5047135;28;20389;-54
2023/11/17 11:38:36;;;;;;;5.18;3.60;;;;;;;;;;5034195;28;20396;-55
2023/11/17 11:41:01;;;;;;;3.97;2.90;;;;;;;;;;5046782;28;20039;-56
2023/11/17 11:43:27;;;;;;;4.43;3.03;;;;;;;;;;5048512;28;20104;-56
2023/11/17 11:45:53;;;;;;;4.72;3.40;;;;;;;;;;5046079;28;20164;-58
2023/11/17 11:48:21;;;;;;;4.55;2.67;;;;;;;;;;5052737;28;20080;-55
2023/11/17 11:50:48;;;;;;;5.68;3.03;;;;;;;;;;5064411;28;20028;-56
2023/11/17 11:53:26;;;;;;;5.25;3.05;;;;;;;;;;5055495;28;20035;-55
2023/11/17 11:55:53;;;;;;;4.90;2.70;;;;;;;;;;5048909;28;20028;-56
2023/11/17 11:58:19;;;;;;;4.47;2.70;;;;;;;;;;5045350;28;20048;-62
2023/11/17 12:00:47;;;;;;;4.40;3.00;;;;;;;;;;5047687;28;20028;-55
2023/11/17 12:03:13;;;;;;;4.43;3.00;;;;;;;;;;5045619;28;20127;-56
2023/11/17 12:05:45;;;;;;;4.03;2.65;;;;;;;;;;5047477;28;20124;-56
2023/11/17 12:08:29;;;;;;;3.83;2.75;;;;;;;;;;5045892;28;20039;-55
2023/11/17 12:11:21;;;;;;;4.25;3.10;;;;;;;;;;5049037;28;20043;-55
2023/11/17 12:13:47;;;;;;;4.55;2.70;;;;;;;;;;5044459;28;20049;-56
2023/11/17 12:16:14;;;;;;;3.63;2.83;;;;;;;;;;5044168;28;20110;-56
2023/11/17 12:18:43;;;;;;;4.65;2.95;;;;;;;;;;5046293;28;20025;-56
2023/11/17 12:21:18;;;;;;;3.85;2.70;;;;;;;;;;5076560;28;20086;-55
2023/11/17 12:23:56;;;;;;;4.78;3.00;;;;;;;;;;5043385;28;20100;-56
2023/11/17 12:26:24;;;;;;;4.05;2.90;;;;;;;;;;5077925;28;20044;-55
2023/11/17 12:28:49;;;;;;;3.67;2.80;;;;;;;;;;5046834;28;20155;-56
2023/11/17 12:31:15;;;;;;;4.60;2.78;;;;;;;;;;5051368;28;20131;-56
2023/11/17 12:33:41;;;;;;;3.20;2.38;;;;;;;;;;5051141;28;20096;-58
2023/11/17 12:36:07;;;;;;;4.70;2.75;;;;;;;;;;5049526;28;20037;-56
2023/11/17 12:38:33;;;;;;;3.85;2.53;;;;;;;;;;5037534;28;20160;-56
2023/11/17 12:41:00;;;;;;;4.60;2.75;;;;;;;;;;5048606;28;20035;-56
2023/11/17 12:43:28;;;;;;;3.95;2.80;;;;;;;;;;5048532;28;20048;-56
2023/11/17 12:45:54;;;;;;;4.05;2.80;;;;;;;;;;5048515;28;20120;-57
2023/11/17 12:48:19;;;;;;;3.55;2.53;;;;;;;;;;5049003;28;20185;-56
2023/11/17 12:50:44;;;;;;;3.88;2.88;;;;;;;;;;5055330;28;20343;-57
2023/11/17 12:53:10;;;;;;;4.47;2.72;;;;;;;;;;5050893;28;20074;-57
2023/11/17 12:55:45;;;;;;;2.97;2.47;;;;;;;;;;5051037;28;20036;-58
2023/11/17 12:58:12;;;;;;;3.90;2.60;;;;;;;;;;5050136;28;20094;-58
2023/11/17 13:00:37;;;;;;;4.32;2.60;;;;;;;;;;5034017;28;20041;-57
2023/11/17 13:03:03;;;;;;;3.70;2.55;;;;;;;;;;5044339;28;20055;-57
2023/11/17 13:05:29;;;;;;;3.53;2.58;;;;;;;;;;5046870;28;20124;-57
2023/11/17 13:07:54;;;;;;;3.58;2.45;;;;;;;;;;5047694;28;20037;-56
2023/11/17 13:10:19;;;;;;;3.58;2.50;;;;;;;;;;5049422;28;20301;-56
2023/11/17 13:12:47;;;;;;;3.45;2.40;;;;;;;;;;5049227;28;20041;-55
2023/11/17 13:15:14;;;;;;;3.97;2.92;;;;;;;;;;5047145;28;20111;-58
2023/11/17 13:17:39;;;;;;;4.35;2.67;;;;;;;;;;5050541;28;20091;-54
2023/11/17 13:20:13;;;;;;;3.30;2.40;;;;;;;;;;5048785;28;20024;-55
2023/11/17 13:22:42;;;;;;;3.85;2.60;;;;;;;;;;5048676;28;20021;-56
2023/11/17 13:25:09;;;;;;;4.53;2.70;;;;;;;;;;5049176;28;20152;-55
2023/11/17 13:27:38;;;;;;;3.85;2.17;;;;;;;;;;5049496;28;20044;-57
2023/11/17 13:30:05;;;;;;;2.80;2.22;;;;;;;;;;5047937;28;20110;-57
2023/11/17 13:32:45;;;;;;;3.90;2.60;;;;;;;;;;5049102;28;20154;-57
2023/11/17 13:35:17;;;;;;;3.67;2.53;;;;;;;;;;5047768;28;20091;-57
2023/11/17 13:37:42;;;;;;;3.20;2.55;;;;;;;;;;5045219;28;20033;-55
2023/11/17 13:40:12;;;;;;;3.50;2.50;;;;;;;;;;5048890;28;20052;-55
2023/11/17 13:42:37;;;;;;;2.88;2.33;;;;;;;;;;5045958;28;20036;-56
2023/11/17 13:45:03;;;;;;;3.03;2.40;;;;;;;;;;5046662;28;20037;-57
2023/11/17 13:47:29;;;;;;;7.90;2.42;;;;;;;;;;5053268;28;20060;-57
2023/11/17 13:49:55;;;;;;;4.85;2.72;;;;;;;;;;5048232;28;20487;-56
2023/11/17 13:52:20;;;;;;;3.67;2.50;;;;;;;;;;5046374;28;20048;-58
2023/11/17 13:54:48;;;;;;;5.53;2.38;;;;;;;;;;5049829;28;20060;-56
2023/11/17 13:57:13;;;;;;;3.67;2.30;;;;;;;;;;5079397;28;20158;-57
2023/11/17 13:59:39;;;;;;;4.32;2.42;;;;;;;;;;5047146;28;20590;-56
2023/11/17 14:02:08;;;;;;;3.55;2.20;;;;;;;;;;5052391;28;20041;-56
2023/11/17 14:04:35;;;;;;;3.28;2.10;;;;;;;;;;5051171;28;20033;-56
2023/11/17 14:07:01;;;;;;;3.13;2.33;;;;;;;;;;5053598;28;20052;-56
2023/11/17 14:09:27;;;;;;;4.70;2.20;;;;;;;;;;5049193;28;20133;-56
2023/11/17 14:11:53;;;;;;;5.90;2.40;;;;;;;;;;5053023;28;20037;-56
2023/11/17 14:14:19;;;;;;;3.20;2.20;;;;;;;;;;5048044;28;20072;-56
2023/11/17 14:16:48;;;;;;;2.75;2.15;;;;;;;;;;5051066;28;20135;-56
2023/11/17 14:19:14;;;;;;;3.10;2.30;;;;;;;;;;5049239;28;20119;-56
2023/11/17 14:21:44;;;;;;;3.65;2.30;;;;;;;;;;5051246;28;20576;-54
2023/11/17 14:24:10;;;;;;;3.75;2.42;;;;;;;;;;5050714;28;20506;-55
2023/11/17 14:26:35;;;;;;;3.35;2.28;;;;;;;;;;5049320;28;20056;-55
2023/11/17 14:29:02;;;;;;;3.28;2.40;;;;;;;;;;5050407;28;20499;-56
2023/11/17 14:31:29;;;;;;;3.55;2.53;;;;;;;;;;5049323;28;20067;-56
2023/11/17 14:33:54;;;;;;;2.95;2.08;;;;;;;;;;5048345;28;20044;-55
2023/11/17 14:36:19;;;;;;;3.90;2.50;;;;;;;;;;5048389;28;20555;-56
2023/11/17 14:38:45;;;;;;;2.95;2.00;;;;;;;;;;5049957;28;20510;-56
2023/11/17 14:41:10;;;;;;;2.58;1.90;;;;;;;;;;5047909;28;20047;-56